<?xml version="1.0" encoding="UTF-8"?>
<gpx version="1.0" creator="Trackator" xmlns:xsi="http://www.w3.org/2001/XMLSchema-instance" xmlns="http://www.topografix.com/GPX/1/0" xmlns:topografix="http://www.topografix.com/GPX/Private/TopoGrafix/0/1" xsi:schemaLocation="http://www.topografix.com/GPX/1/0 http://www.topografix.com/GPX/1/0/gpx.xsd http://www.topografix.com/GPX/Private/TopoGrafix/0/1 http://www.topografix.com/GPX/Private/TopoGrafix/0/1/topografix.xsd">
<metadata>
<link href="http://www.trackator.com">
<text>Trackator</text>
</link>
</metadata>
<time>2015-05-19T13:45:53Z</time>
<trk>
<name>Track: </name>
<desc>Cycling</desc>
<trkseg>
<trkpt lat="53.3507907" lon="18.4293153">
<ele>118</ele>
<time>2015-05-19T13:45:53Z</time>
</trkpt>
<trkpt lat="53.3506586" lon="18.4292849">
<ele>117</ele>
<time>2015-05-19T13:45:55Z</time>
</trkpt>
<trkpt lat="53.3507772" lon="18.4294819">
<ele>113</ele>
<time>2015-05-19T13:45:57Z</time>
</trkpt>
<trkpt lat="53.3508340" lon="18.4294469">
<ele>112</ele>
<time>2015-05-19T13:45:59Z</time>
</trkpt>
<trkpt lat="53.3508446" lon="18.4294380">
<ele>114</ele>
<time>2015-05-19T13:46:01Z</time>
</trkpt>
<trkpt lat="53.3507990" lon="18.4294442">
<ele>115</ele>
<time>2015-05-19T13:46:05Z</time>
</trkpt>
<trkpt lat="53.3507827" lon="18.4294536">
<ele>116</ele>
<time>2015-05-19T13:46:07Z</time>
</trkpt>
<trkpt lat="53.3507755" lon="18.4295369">
<ele>114</ele>
<time>2015-05-19T13:46:09Z</time>
</trkpt>
<trkpt lat="53.3507727" lon="18.4295895">
<ele>114</ele>
<time>2015-05-19T13:46:11Z</time>
</trkpt>
<trkpt lat="53.3507702" lon="18.4296527">
<ele>114</ele>
<time>2015-05-19T13:46:13Z</time>
</trkpt>
<trkpt lat="53.3507611" lon="18.4297552">
<ele>115</ele>
<time>2015-05-19T13:46:15Z</time>
</trkpt>
<trkpt lat="53.3507796" lon="18.4298279">
<ele>115</ele>
<time>2015-05-19T13:46:17Z</time>
</trkpt>
<trkpt lat="53.3507886" lon="18.4299233">
<ele>115</ele>
<time>2015-05-19T13:46:19Z</time>
</trkpt>
<trkpt lat="53.3507865" lon="18.4300247">
<ele>115</ele>
<time>2015-05-19T13:46:21Z</time>
</trkpt>
<trkpt lat="53.3507819" lon="18.4301314">
<ele>116</ele>
<time>2015-05-19T13:46:23Z</time>
</trkpt>
<trkpt lat="53.3507794" lon="18.4302674">
<ele>116</ele>
<time>2015-05-19T13:46:25Z</time>
</trkpt>
<trkpt lat="53.3507809" lon="18.4304116">
<ele>115</ele>
<time>2015-05-19T13:46:27Z</time>
</trkpt>
<trkpt lat="53.3507591" lon="18.4305572">
<ele>111</ele>
<time>2015-05-19T13:46:29Z</time>
</trkpt>
<trkpt lat="53.3507254" lon="18.4306921">
<ele>109</ele>
<time>2015-05-19T13:46:31Z</time>
</trkpt>
<trkpt lat="53.350716" lon="18.4308313">
<ele>110</ele>
<time>2015-05-19T13:46:33Z</time>
</trkpt>
<trkpt lat="53.35071" lon="18.4309713">
<ele>114</ele>
<time>2015-05-19T13:46:35Z</time>
</trkpt>
<trkpt lat="53.3506916" lon="18.4311282">
<ele>116</ele>
<time>2015-05-19T13:46:37Z</time>
</trkpt>
<trkpt lat="53.3506660" lon="18.4313369">
<ele>118</ele>
<time>2015-05-19T13:46:39Z</time>
</trkpt>
<trkpt lat="53.3506582" lon="18.4314842">
<ele>118</ele>
<time>2015-05-19T13:46:41Z</time>
</trkpt>
<trkpt lat="53.3506894" lon="18.431599">
<ele>118</ele>
<time>2015-05-19T13:46:43Z</time>
</trkpt>
<trkpt lat="53.3506197" lon="18.4317525">
<ele>119</ele>
<time>2015-05-19T13:46:45Z</time>
</trkpt>
<trkpt lat="53.3506147" lon="18.4318915">
<ele>119</ele>
<time>2015-05-19T13:46:47Z</time>
</trkpt>
<trkpt lat="53.3505883" lon="18.4320713">
<ele>120</ele>
<time>2015-05-19T13:46:49Z</time>
</trkpt>
<trkpt lat="53.3505583" lon="18.4322277">
<ele>121</ele>
<time>2015-05-19T13:46:51Z</time>
</trkpt>
<trkpt lat="53.3505652" lon="18.4324135">
<ele>121</ele>
<time>2015-05-19T13:46:53Z</time>
</trkpt>
<trkpt lat="53.3505461" lon="18.4325493">
<ele>120</ele>
<time>2015-05-19T13:46:55Z</time>
</trkpt>
<trkpt lat="53.3505139" lon="18.4327299">
<ele>119</ele>
<time>2015-05-19T13:46:57Z</time>
</trkpt>
<trkpt lat="53.3504876" lon="18.4329034">
<ele>118</ele>
<time>2015-05-19T13:46:59Z</time>
</trkpt>
<trkpt lat="53.3504728" lon="18.4330463">
<ele>116</ele>
<time>2015-05-19T13:47:01Z</time>
</trkpt>
<trkpt lat="53.3504691" lon="18.4331651">
<ele>112</ele>
<time>2015-05-19T13:47:03Z</time>
</trkpt>
<trkpt lat="53.3504426" lon="18.4333148">
<ele>112</ele>
<time>2015-05-19T13:47:05Z</time>
</trkpt>
<trkpt lat="53.3503910" lon="18.4335049">
<ele>111</ele>
<time>2015-05-19T13:47:07Z</time>
</trkpt>
<trkpt lat="53.3504029" lon="18.4336410">
<ele>110</ele>
<time>2015-05-19T13:47:09Z</time>
</trkpt>
<trkpt lat="53.3503362" lon="18.4338066">
<ele>107</ele>
<time>2015-05-19T13:47:11Z</time>
</trkpt>
<trkpt lat="53.350296" lon="18.4339513">
<ele>106</ele>
<time>2015-05-19T13:47:13Z</time>
</trkpt>
<trkpt lat="53.3502630" lon="18.4340996">
<ele>106</ele>
<time>2015-05-19T13:47:15Z</time>
</trkpt>
<trkpt lat="53.3501875" lon="18.4343179">
<ele>106</ele>
<time>2015-05-19T13:47:17Z</time>
</trkpt>
<trkpt lat="53.3501225" lon="18.4345144">
<ele>105</ele>
<time>2015-05-19T13:47:19Z</time>
</trkpt>
<trkpt lat="53.3500718" lon="18.4346974">
<ele>104</ele>
<time>2015-05-19T13:47:21Z</time>
</trkpt>
<trkpt lat="53.3500364" lon="18.4348414">
<ele>104</ele>
<time>2015-05-19T13:47:23Z</time>
</trkpt>
<trkpt lat="53.3500128" lon="18.4349647">
<ele>105</ele>
<time>2015-05-19T13:47:25Z</time>
</trkpt>
<trkpt lat="53.3499596" lon="18.4351192">
<ele>107</ele>
<time>2015-05-19T13:47:27Z</time>
</trkpt>
<trkpt lat="53.3499437" lon="18.4352153">
<ele>107</ele>
<time>2015-05-19T13:47:29Z</time>
</trkpt>
<trkpt lat="53.3499612" lon="18.4353294">
<ele>106</ele>
<time>2015-05-19T13:47:31Z</time>
</trkpt>
<trkpt lat="53.3499201" lon="18.4354859">
<ele>106</ele>
<time>2015-05-19T13:47:33Z</time>
</trkpt>
<trkpt lat="53.3498787" lon="18.4356687">
<ele>104</ele>
<time>2015-05-19T13:47:35Z</time>
</trkpt>
<trkpt lat="53.3498029" lon="18.4357929">
<ele>105</ele>
<time>2015-05-19T13:47:37Z</time>
</trkpt>
<trkpt lat="53.3497996" lon="18.4358866">
<ele>106</ele>
<time>2015-05-19T13:47:39Z</time>
</trkpt>
<trkpt lat="53.3497302" lon="18.4360619">
<ele>107</ele>
<time>2015-05-19T13:47:41Z</time>
</trkpt>
<trkpt lat="53.3496916" lon="18.4362282">
<ele>105</ele>
<time>2015-05-19T13:47:43Z</time>
</trkpt>
<trkpt lat="53.3496545" lon="18.4363562">
<ele>106</ele>
<time>2015-05-19T13:47:45Z</time>
</trkpt>
<trkpt lat="53.3496103" lon="18.4364683">
<ele>103</ele>
<time>2015-05-19T13:47:47Z</time>
</trkpt>
<trkpt lat="53.3495843" lon="18.4365210">
<ele>103</ele>
<time>2015-05-19T13:47:49Z</time>
</trkpt>
<trkpt lat="53.3495920" lon="18.4365101">
<ele>102</ele>
<time>2015-05-19T13:47:51Z</time>
</trkpt>
<trkpt lat="53.3495861" lon="18.4364961">
<ele>103</ele>
<time>2015-05-19T13:47:53Z</time>
</trkpt>
<trkpt lat="53.3495794" lon="18.4365225">
<ele>104</ele>
<time>2015-05-19T13:47:55Z</time>
</trkpt>
<trkpt lat="53.3495745" lon="18.4365727">
<ele>103</ele>
<time>2015-05-19T13:47:57Z</time>
</trkpt>
<trkpt lat="53.3495681" lon="18.4366438">
<ele>101</ele>
<time>2015-05-19T13:47:59Z</time>
</trkpt>
<trkpt lat="53.3495435" lon="18.4367708">
<ele>101</ele>
<time>2015-05-19T13:48:01Z</time>
</trkpt>
<trkpt lat="53.3495143" lon="18.4369014">
<ele>102</ele>
<time>2015-05-19T13:48:03Z</time>
</trkpt>
<trkpt lat="53.3494811" lon="18.4370269">
<ele>102</ele>
<time>2015-05-19T13:48:05Z</time>
</trkpt>
<trkpt lat="53.3494426" lon="18.4371353">
<ele>103</ele>
<time>2015-05-19T13:48:07Z</time>
</trkpt>
<trkpt lat="53.3494060" lon="18.4372432">
<ele>105</ele>
<time>2015-05-19T13:48:09Z</time>
</trkpt>
<trkpt lat="53.3493772" lon="18.4373683">
<ele>106</ele>
<time>2015-05-19T13:48:11Z</time>
</trkpt>
<trkpt lat="53.3493461" lon="18.4375102">
<ele>106</ele>
<time>2015-05-19T13:48:13Z</time>
</trkpt>
<trkpt lat="53.3493139" lon="18.4376570">
<ele>104</ele>
<time>2015-05-19T13:48:15Z</time>
</trkpt>
<trkpt lat="53.3492848" lon="18.4377951">
<ele>104</ele>
<time>2015-05-19T13:48:17Z</time>
</trkpt>
<trkpt lat="53.3492532" lon="18.4379293">
<ele>102</ele>
<time>2015-05-19T13:48:19Z</time>
</trkpt>
<trkpt lat="53.3492043" lon="18.4380590">
<ele>103</ele>
<time>2015-05-19T13:48:21Z</time>
</trkpt>
<trkpt lat="53.3491563" lon="18.4381687">
<ele>105</ele>
<time>2015-05-19T13:48:23Z</time>
</trkpt>
<trkpt lat="53.3491319" lon="18.4382627">
<ele>105</ele>
<time>2015-05-19T13:48:25Z</time>
</trkpt>
<trkpt lat="53.3491113" lon="18.4383637">
<ele>104</ele>
<time>2015-05-19T13:48:27Z</time>
</trkpt>
<trkpt lat="53.3490841" lon="18.4384746">
<ele>105</ele>
<time>2015-05-19T13:48:29Z</time>
</trkpt>
<trkpt lat="53.3490586" lon="18.4385886">
<ele>104</ele>
<time>2015-05-19T13:48:31Z</time>
</trkpt>
<trkpt lat="53.3490263" lon="18.4387087">
<ele>104</ele>
<time>2015-05-19T13:48:33Z</time>
</trkpt>
<trkpt lat="53.3489902" lon="18.4388295">
<ele>105</ele>
<time>2015-05-19T13:48:35Z</time>
</trkpt>
<trkpt lat="53.3489538" lon="18.4389512">
<ele>105</ele>
<time>2015-05-19T13:48:37Z</time>
</trkpt>
<trkpt lat="53.3489166" lon="18.439074">
<ele>106</ele>
<time>2015-05-19T13:48:39Z</time>
</trkpt>
<trkpt lat="53.3488790" lon="18.4391707">
<ele>105</ele>
<time>2015-05-19T13:48:41Z</time>
</trkpt>
<trkpt lat="53.3488541" lon="18.4392419">
<ele>105</ele>
<time>2015-05-19T13:48:43Z</time>
</trkpt>
<trkpt lat="53.3488422" lon="18.4393294">
<ele>104</ele>
<time>2015-05-19T13:48:45Z</time>
</trkpt>
<trkpt lat="53.3488281" lon="18.4394287">
<ele>104</ele>
<time>2015-05-19T13:48:47Z</time>
</trkpt>
<trkpt lat="53.3488030" lon="18.4395239">
<ele>103</ele>
<time>2015-05-19T13:48:49Z</time>
</trkpt>
<trkpt lat="53.3487843" lon="18.4395971">
<ele>102</ele>
<time>2015-05-19T13:48:51Z</time>
</trkpt>
<trkpt lat="53.3487754" lon="18.4396324">
<ele>102</ele>
<time>2015-05-19T13:48:53Z</time>
</trkpt>
<trkpt lat="53.3487559" lon="18.4396905">
<ele>101</ele>
<time>2015-05-19T13:48:55Z</time>
</trkpt>
<trkpt lat="53.3487241" lon="18.4397806">
<ele>99</ele>
<time>2015-05-19T13:48:57Z</time>
</trkpt>
<trkpt lat="53.3486871" lon="18.4398735">
<ele>98</ele>
<time>2015-05-19T13:48:59Z</time>
</trkpt>
<trkpt lat="53.3486502" lon="18.4399754">
<ele>97</ele>
<time>2015-05-19T13:49:01Z</time>
</trkpt>
<trkpt lat="53.3486146" lon="18.4400797">
<ele>98</ele>
<time>2015-05-19T13:49:03Z</time>
</trkpt>
<trkpt lat="53.3485810" lon="18.4401934">
<ele>98</ele>
<time>2015-05-19T13:49:05Z</time>
</trkpt>
<trkpt lat="53.3485397" lon="18.440307">
<ele>97</ele>
<time>2015-05-19T13:49:07Z</time>
</trkpt>
<trkpt lat="53.3485043" lon="18.4404154">
<ele>96</ele>
<time>2015-05-19T13:49:09Z</time>
</trkpt>
<trkpt lat="53.3484637" lon="18.4405326">
<ele>95</ele>
<time>2015-05-19T13:49:11Z</time>
</trkpt>
<trkpt lat="53.3484166" lon="18.4406650">
<ele>94</ele>
<time>2015-05-19T13:49:13Z</time>
</trkpt>
<trkpt lat="53.3483728" lon="18.4407978">
<ele>97</ele>
<time>2015-05-19T13:49:15Z</time>
</trkpt>
<trkpt lat="53.3483302" lon="18.4409285">
<ele>96</ele>
<time>2015-05-19T13:49:17Z</time>
</trkpt>
<trkpt lat="53.3482936" lon="18.4410556">
<ele>96</ele>
<time>2015-05-19T13:49:19Z</time>
</trkpt>
<trkpt lat="53.3482574" lon="18.4411784">
<ele>96</ele>
<time>2015-05-19T13:49:21Z</time>
</trkpt>
<trkpt lat="53.3482128" lon="18.4412972">
<ele>96</ele>
<time>2015-05-19T13:49:23Z</time>
</trkpt>
<trkpt lat="53.348171" lon="18.4414131">
<ele>97</ele>
<time>2015-05-19T13:49:25Z</time>
</trkpt>
<trkpt lat="53.3481303" lon="18.4415311">
<ele>96</ele>
<time>2015-05-19T13:49:27Z</time>
</trkpt>
<trkpt lat="53.3480813" lon="18.4416371">
<ele>96</ele>
<time>2015-05-19T13:49:29Z</time>
</trkpt>
<trkpt lat="53.3480257" lon="18.4417460">
<ele>94</ele>
<time>2015-05-19T13:49:31Z</time>
</trkpt>
<trkpt lat="53.3479692" lon="18.4418540">
<ele>95</ele>
<time>2015-05-19T13:49:33Z</time>
</trkpt>
<trkpt lat="53.3479076" lon="18.4419617">
<ele>93</ele>
<time>2015-05-19T13:49:35Z</time>
</trkpt>
<trkpt lat="53.3478489" lon="18.4420720">
<ele>92</ele>
<time>2015-05-19T13:49:37Z</time>
</trkpt>
<trkpt lat="53.3477888" lon="18.4421851">
<ele>90</ele>
<time>2015-05-19T13:49:39Z</time>
</trkpt>
<trkpt lat="53.3476634" lon="18.4423509">
<ele>90</ele>
<time>2015-05-19T13:49:41Z</time>
</trkpt>
<trkpt lat="53.3475903" lon="18.4424530">
<ele>92</ele>
<time>2015-05-19T13:49:43Z</time>
</trkpt>
<trkpt lat="53.3475516" lon="18.4425261">
<ele>93</ele>
<time>2015-05-19T13:49:45Z</time>
</trkpt>
<trkpt lat="53.3475166" lon="18.4426172">
<ele>93</ele>
<time>2015-05-19T13:49:47Z</time>
</trkpt>
<trkpt lat="53.3474800" lon="18.4427050">
<ele>96</ele>
<time>2015-05-19T13:49:49Z</time>
</trkpt>
<trkpt lat="53.3474558" lon="18.4427689">
<ele>96</ele>
<time>2015-05-19T13:49:51Z</time>
</trkpt>
<trkpt lat="53.3474292" lon="18.4428311">
<ele>96</ele>
<time>2015-05-19T13:49:53Z</time>
</trkpt>
<trkpt lat="53.3474170" lon="18.4428774">
<ele>95</ele>
<time>2015-05-19T13:49:55Z</time>
</trkpt>
<trkpt lat="53.3474177" lon="18.4429355">
<ele>95</ele>
<time>2015-05-19T13:49:57Z</time>
</trkpt>
<trkpt lat="53.3474421" lon="18.4430061">
<ele>97</ele>
<time>2015-05-19T13:49:59Z</time>
</trkpt>
<trkpt lat="53.3474592" lon="18.4430766">
<ele>99</ele>
<time>2015-05-19T13:50:01Z</time>
</trkpt>
<trkpt lat="53.3474454" lon="18.4431509">
<ele>100</ele>
<time>2015-05-19T13:50:03Z</time>
</trkpt>
<trkpt lat="53.3474298" lon="18.4432276">
<ele>99</ele>
<time>2015-05-19T13:50:05Z</time>
</trkpt>
<trkpt lat="53.3474240" lon="18.4433015">
<ele>99</ele>
<time>2015-05-19T13:50:07Z</time>
</trkpt>
<trkpt lat="53.3474325" lon="18.4433607">
<ele>99</ele>
<time>2015-05-19T13:50:09Z</time>
</trkpt>
<trkpt lat="53.3474359" lon="18.4433915">
<ele>100</ele>
<time>2015-05-19T13:50:11Z</time>
</trkpt>
<trkpt lat="53.3474294" lon="18.4434327">
<ele>102</ele>
<time>2015-05-19T13:50:13Z</time>
</trkpt>
<trkpt lat="53.3474196" lon="18.4434833">
<ele>103</ele>
<time>2015-05-19T13:50:15Z</time>
</trkpt>
<trkpt lat="53.3474294" lon="18.4435509">
<ele>101</ele>
<time>2015-05-19T13:50:17Z</time>
</trkpt>
<trkpt lat="53.3474557" lon="18.4436225">
<ele>102</ele>
<time>2015-05-19T13:50:19Z</time>
</trkpt>
<trkpt lat="53.3474890" lon="18.4437041">
<ele>101</ele>
<time>2015-05-19T13:50:21Z</time>
</trkpt>
<trkpt lat="53.3475373" lon="18.4437785">
<ele>101</ele>
<time>2015-05-19T13:50:23Z</time>
</trkpt>
<trkpt lat="53.3475919" lon="18.4438245">
<ele>99</ele>
<time>2015-05-19T13:50:25Z</time>
</trkpt>
<trkpt lat="53.3476320" lon="18.4438852">
<ele>98</ele>
<time>2015-05-19T13:50:27Z</time>
</trkpt>
<trkpt lat="53.3476639" lon="18.4439550">
<ele>96</ele>
<time>2015-05-19T13:50:29Z</time>
</trkpt>
<trkpt lat="53.3476999" lon="18.4440098">
<ele>95</ele>
<time>2015-05-19T13:50:31Z</time>
</trkpt>
<trkpt lat="53.3477414" lon="18.4440358">
<ele>95</ele>
<time>2015-05-19T13:50:33Z</time>
</trkpt>
<trkpt lat="53.3477941" lon="18.4440381">
<ele>96</ele>
<time>2015-05-19T13:50:35Z</time>
</trkpt>
<trkpt lat="53.3478445" lon="18.4440420">
<ele>96</ele>
<time>2015-05-19T13:50:37Z</time>
</trkpt>
<trkpt lat="53.3478794" lon="18.4440636">
<ele>98</ele>
<time>2015-05-19T13:50:39Z</time>
</trkpt>
<trkpt lat="53.3478929" lon="18.4441119">
<ele>100</ele>
<time>2015-05-19T13:50:41Z</time>
</trkpt>
<trkpt lat="53.3478773" lon="18.4441595">
<ele>98</ele>
<time>2015-05-19T13:50:43Z</time>
</trkpt>
<trkpt lat="53.3478585" lon="18.4441990">
<ele>99</ele>
<time>2015-05-19T13:50:45Z</time>
</trkpt>
<trkpt lat="53.3478548" lon="18.4442346">
<ele>99</ele>
<time>2015-05-19T13:50:47Z</time>
</trkpt>
<trkpt lat="53.3478563" lon="18.4442713">
<ele>97</ele>
<time>2015-05-19T13:50:49Z</time>
</trkpt>
<trkpt lat="53.3478566" lon="18.4443093">
<ele>99</ele>
<time>2015-05-19T13:50:51Z</time>
</trkpt>
<trkpt lat="53.3478486" lon="18.4443184">
<ele>97</ele>
<time>2015-05-19T13:50:53Z</time>
</trkpt>
<trkpt lat="53.3478443" lon="18.4443174">
<ele>97</ele>
<time>2015-05-19T13:50:55Z</time>
</trkpt>
<trkpt lat="53.3478438" lon="18.4443213">
<ele>97</ele>
<time>2015-05-19T13:50:57Z</time>
</trkpt>
<trkpt lat="53.3478478" lon="18.4443225">
<ele>96</ele>
<time>2015-05-19T13:50:59Z</time>
</trkpt>
<trkpt lat="53.3478598" lon="18.4443378">
<ele>97</ele>
<time>2015-05-19T13:51:01Z</time>
</trkpt>
<trkpt lat="53.3478785" lon="18.4443591">
<ele>98</ele>
<time>2015-05-19T13:51:03Z</time>
</trkpt>
<trkpt lat="53.3478981" lon="18.4443797">
<ele>98</ele>
<time>2015-05-19T13:51:05Z</time>
</trkpt>
<trkpt lat="53.3479261" lon="18.4444021">
<ele>98</ele>
<time>2015-05-19T13:51:07Z</time>
</trkpt>
<trkpt lat="53.3479627" lon="18.4444355">
<ele>98</ele>
<time>2015-05-19T13:51:09Z</time>
</trkpt>
<trkpt lat="53.3479942" lon="18.4444737">
<ele>98</ele>
<time>2015-05-19T13:51:11Z</time>
</trkpt>
<trkpt lat="53.3480185" lon="18.4445223">
<ele>98</ele>
<time>2015-05-19T13:51:13Z</time>
</trkpt>
<trkpt lat="53.3480462" lon="18.4445815">
<ele>98</ele>
<time>2015-05-19T13:51:15Z</time>
</trkpt>
<trkpt lat="53.3480895" lon="18.4446740">
<ele>99</ele>
<time>2015-05-19T13:51:17Z</time>
</trkpt>
<trkpt lat="53.3481533" lon="18.4447628">
<ele>98</ele>
<time>2015-05-19T13:51:19Z</time>
</trkpt>
<trkpt lat="53.3482368" lon="18.4448096">
<ele>99</ele>
<time>2015-05-19T13:51:21Z</time>
</trkpt>
<trkpt lat="53.3483563" lon="18.4448242">
<ele>100</ele>
<time>2015-05-19T13:51:23Z</time>
</trkpt>
<trkpt lat="53.3484615" lon="18.4448439">
<ele>100</ele>
<time>2015-05-19T13:51:25Z</time>
</trkpt>
<trkpt lat="53.3485657" lon="18.4448833">
<ele>100</ele>
<time>2015-05-19T13:51:27Z</time>
</trkpt>
<trkpt lat="53.3486681" lon="18.4448943">
<ele>103</ele>
<time>2015-05-19T13:51:29Z</time>
</trkpt>
<trkpt lat="53.3486868" lon="18.4449374">
<ele>103</ele>
<time>2015-05-19T13:51:31Z</time>
</trkpt>
<trkpt lat="53.3486511" lon="18.4450042">
<ele>102</ele>
<time>2015-05-19T13:51:33Z</time>
</trkpt>
<trkpt lat="53.3486125" lon="18.4450750">
<ele>101</ele>
<time>2015-05-19T13:51:35Z</time>
</trkpt>
<trkpt lat="53.3485883" lon="18.4451441">
<ele>99</ele>
<time>2015-05-19T13:51:37Z</time>
</trkpt>
<trkpt lat="53.3485643" lon="18.4452068">
<ele>98</ele>
<time>2015-05-19T13:51:39Z</time>
</trkpt>
<trkpt lat="53.3485385" lon="18.4452719">
<ele>98</ele>
<time>2015-05-19T13:51:41Z</time>
</trkpt>
<trkpt lat="53.3485215" lon="18.4453181">
<ele>96</ele>
<time>2015-05-19T13:51:43Z</time>
</trkpt>
<trkpt lat="53.3485142" lon="18.4453739">
<ele>96</ele>
<time>2015-05-19T13:51:45Z</time>
</trkpt>
<trkpt lat="53.3485060" lon="18.4454518">
<ele>96</ele>
<time>2015-05-19T13:51:47Z</time>
</trkpt>
<trkpt lat="53.3484890" lon="18.4455676">
<ele>97</ele>
<time>2015-05-19T13:51:49Z</time>
</trkpt>
<trkpt lat="53.3484748" lon="18.4456586">
<ele>100</ele>
<time>2015-05-19T13:51:51Z</time>
</trkpt>
<trkpt lat="53.3484378" lon="18.4456752">
<ele>100</ele>
<time>2015-05-19T13:51:53Z</time>
</trkpt>
<trkpt lat="53.3483828" lon="18.4456603">
<ele>99</ele>
<time>2015-05-19T13:51:55Z</time>
</trkpt>
<trkpt lat="53.3483159" lon="18.4456387">
<ele>99</ele>
<time>2015-05-19T13:51:57Z</time>
</trkpt>
<trkpt lat="53.3482435" lon="18.4456453">
<ele>96</ele>
<time>2015-05-19T13:51:59Z</time>
</trkpt>
<trkpt lat="53.3482128" lon="18.4457225">
<ele>96</ele>
<time>2015-05-19T13:52:01Z</time>
</trkpt>
<trkpt lat="53.3482213" lon="18.4458207">
<ele>98</ele>
<time>2015-05-19T13:52:03Z</time>
</trkpt>
<trkpt lat="53.3482291" lon="18.4459201">
<ele>99</ele>
<time>2015-05-19T13:52:05Z</time>
</trkpt>
<trkpt lat="53.3482321" lon="18.4460210">
<ele>99</ele>
<time>2015-05-19T13:52:07Z</time>
</trkpt>
<trkpt lat="53.3482272" lon="18.4461108">
<ele>100</ele>
<time>2015-05-19T13:52:09Z</time>
</trkpt>
<trkpt lat="53.3482196" lon="18.4461719">
<ele>101</ele>
<time>2015-05-19T13:52:11Z</time>
</trkpt>
<trkpt lat="53.3482118" lon="18.4462207">
<ele>101</ele>
<time>2015-05-19T13:52:13Z</time>
</trkpt>
<trkpt lat="53.3482207" lon="18.4462119">
<ele>103</ele>
<time>2015-05-19T13:52:15Z</time>
</trkpt>
<trkpt lat="53.3482295" lon="18.4462001">
<ele>104</ele>
<time>2015-05-19T13:52:17Z</time>
</trkpt>
<trkpt lat="53.3482400" lon="18.4461984">
<ele>105</ele>
<time>2015-05-19T13:52:19Z</time>
</trkpt>
<trkpt lat="53.3482505" lon="18.4461968">
<ele>106</ele>
<time>2015-05-19T13:52:21Z</time>
</trkpt>
<trkpt lat="53.3482572" lon="18.4461957">
<ele>107</ele>
<time>2015-05-19T13:52:23Z</time>
</trkpt>
<trkpt lat="53.3482667" lon="18.4462010">
<ele>107</ele>
<time>2015-05-19T13:52:25Z</time>
</trkpt>
<trkpt lat="53.3482750" lon="18.4462060">
<ele>107</ele>
<time>2015-05-19T13:52:27Z</time>
</trkpt>
<trkpt lat="53.3482772" lon="18.4462077">
<ele>107</ele>
<time>2015-05-19T13:52:29Z</time>
</trkpt>
<trkpt lat="53.3482796" lon="18.4462082">
<ele>107</ele>
<time>2015-05-19T13:52:31Z</time>
</trkpt>
<trkpt lat="53.3482802" lon="18.4462086">
<ele>107</ele>
<time>2015-05-19T13:52:33Z</time>
</trkpt>
<trkpt lat="53.3482804" lon="18.4462087">
<ele>108</ele>
<time>2015-05-19T13:52:35Z</time>
</trkpt>
<trkpt lat="53.3482805" lon="18.4462088">
<ele>108</ele>
<time>2015-05-19T13:52:37Z</time>
</trkpt>
<trkpt lat="53.3482806" lon="18.4462088">
<ele>108</ele>
<time>2015-05-19T13:52:39Z</time>
</trkpt>
<trkpt lat="53.3482806" lon="18.4462089">
<ele>108</ele>
<time>2015-05-19T13:52:41Z</time>
</trkpt>
<trkpt lat="53.3482983" lon="18.4462115">
<ele>109</ele>
<time>2015-05-19T13:52:43Z</time>
</trkpt>
<trkpt lat="53.3483188" lon="18.4462135">
<ele>109</ele>
<time>2015-05-19T13:52:45Z</time>
</trkpt>
<trkpt lat="53.3483296" lon="18.4462145">
<ele>110</ele>
<time>2015-05-19T13:52:47Z</time>
</trkpt>
<trkpt lat="53.3483384" lon="18.4462177">
<ele>110</ele>
<time>2015-05-19T13:52:49Z</time>
</trkpt>
<trkpt lat="53.3483409" lon="18.4462197">
<ele>110</ele>
<time>2015-05-19T13:52:51Z</time>
</trkpt>
<trkpt lat="53.3483441" lon="18.4462214">
<ele>110</ele>
<time>2015-05-19T13:52:53Z</time>
</trkpt>
<trkpt lat="53.3483461" lon="18.4462231">
<ele>110</ele>
<time>2015-05-19T13:52:55Z</time>
</trkpt>
<trkpt lat="53.3483464" lon="18.4462238">
<ele>110</ele>
<time>2015-05-19T13:52:57Z</time>
</trkpt>
<trkpt lat="53.3483465" lon="18.4462240">
<ele>110</ele>
<time>2015-05-19T13:52:59Z</time>
</trkpt>
<trkpt lat="53.3483465" lon="18.4462241">
<ele>110</ele>
<time>2015-05-19T13:53:01Z</time>
</trkpt>
<trkpt lat="53.3483465" lon="18.4462241">
<ele>110</ele>
<time>2015-05-19T13:53:03Z</time>
</trkpt>
<trkpt lat="53.3483465" lon="18.4462241">
<ele>110</ele>
<time>2015-05-19T13:53:05Z</time>
</trkpt>
<trkpt lat="53.3483465" lon="18.4462241">
<ele>110</ele>
<time>2015-05-19T13:53:07Z</time>
</trkpt>
<trkpt lat="53.3483465" lon="18.4462241">
<ele>110</ele>
<time>2015-05-19T13:53:09Z</time>
</trkpt>
<trkpt lat="53.3483465" lon="18.4462241">
<ele>110</ele>
<time>2015-05-19T13:53:11Z</time>
</trkpt>
<trkpt lat="53.3483455" lon="18.4462233">
<ele>110</ele>
<time>2015-05-19T13:55:06Z</time>
</trkpt>
<trkpt lat="53.3483454" lon="18.4462232">
<ele>110</ele>
<time>2015-05-19T13:55:09Z</time>
</trkpt>
<trkpt lat="53.3483453" lon="18.4462232">
<ele>110</ele>
<time>2015-05-19T13:55:11Z</time>
</trkpt>
<trkpt lat="53.3483453" lon="18.4462232">
<ele>110</ele>
<time>2015-05-19T13:55:13Z</time>
</trkpt>
<trkpt lat="53.3483453" lon="18.4462232">
<ele>110</ele>
<time>2015-05-19T13:55:15Z</time>
</trkpt>
<trkpt lat="53.3483453" lon="18.4462232">
<ele>110</ele>
<time>2015-05-19T13:55:17Z</time>
</trkpt>
<trkpt lat="53.3483453" lon="18.4462232">
<ele>110</ele>
<time>2015-05-19T13:55:19Z</time>
</trkpt>
<trkpt lat="53.3483453" lon="18.4462232">
<ele>110</ele>
<time>2015-05-19T13:55:21Z</time>
</trkpt>
<trkpt lat="53.3483453" lon="18.4462232">
<ele>110</ele>
<time>2015-05-19T13:55:23Z</time>
</trkpt>
<trkpt lat="53.3483453" lon="18.4462232">
<ele>110</ele>
<time>2015-05-19T13:55:25Z</time>
</trkpt>
<trkpt lat="53.3483452" lon="18.4462232">
<ele>110</ele>
<time>2015-05-19T13:55:27Z</time>
</trkpt>
<trkpt lat="53.3483452" lon="18.4462232">
<ele>110</ele>
<time>2015-05-19T13:55:29Z</time>
</trkpt>
<trkpt lat="" lon="">
<ele></ele>
<time>2015-05-19TZ</time>
</trkpt>
</trkseg>
</trk>
<wpt lat="" lon="">
	<name></name>
	<desc></desc>
	<cmt></cmt>
	<photoid></photoid>
	<type></type>
</wpt>
</gpx>
